Data for 04/22/2014

Time Sea-Level Adjusted Pressure Absolute Pressure Temperature Relative Humidity Dew Point   
(mb) (inHg) (mb) (inHg) (C) (F) (%) (C) (F)
00:05 1015 29.97 844 24.92 11.1 52 29 -6.1 21.1
00:10 1015 29.97 844 24.92 11 51.9 30 -6 21.2
00:15 1015 29.97 844 24.92 11 51.8 30 -5.9 21.4
00:20 1015 29.97 844 24.92 11 51.7 29 -6.2 20.8
00:25 1014 29.94 844 24.92 11.1 51.9 29 -6.1 21
00:30 1014 29.94 844 24.92 11 51.9 30 -6 21.1
00:35 1014 29.94 843 24.89 11.1 51.9 30 -6 21.1
00:40 1014 29.94 843 24.89 11 51.9 29 -6.2 20.8
00:45 1014 29.94 843 24.89 11 51.8 30 -5.9 21.3
00:50 1014 29.94 843 24.89 10.9 51.7 30 -6.1 21.1
00:55 1014 29.94 843 24.89 10.9 51.6 30 -5.9 21.3
01:00 1014 29.94 843 24.89 10.8 51.4 30 -6 21.3
01:05 1014 29.94 843 24.89 10.6 51.1 31 -5.8 21.5
01:10 1014 29.94 843 24.89 10.6 51 31 -5.9 21.4
01:15 1014 29.94 843 24.89 10.5 51 31 -5.9 21.4
01:20 1014 29.94 843 24.89 10.4 50.7 32 -5.7 21.8
01:25 1014 29.94 843 24.89 10.2 50.3 32 -5.8 21.6
01:30 1013 29.91 843 24.89 10.2 50.3 32 -5.6 22
01:35 1013 29.91 843 24.89 10 50 34 -5.3 22.4
01:40 1013 29.91 842 24.86 9.8 49.6 34 -5.4 22.2
01:45 1013 29.91 842 24.86 9.8 49.6 34 -5.4 22.4
01:50 1013 29.91 842 24.86 9.7 49.5 34 -5.3 22.5
01:55 1013 29.91 842 24.86 9.6 49.3 35 -5.1 22.8
02:00 1013 29.91 842 24.86 9.6 49.3 34 -5.5 22
02:05 1013 29.91 842 24.86 9.8 49.7 33 -5.5 22.1
02:10 1013 29.91 842 24.86 9.9 49.8 32 -5.9 21.5
02:15 1013 29.91 842 24.86 10 50.1 32 -5.7 21.8
02:20 1013 29.91 842 24.86 10 50.1 33 -5.6 22
02:25 1013 29.91 842 24.86 9.9 49.8 33 -5.6 21.9
02:30 1013 29.91 842 24.86 9.7 49.5 34 -5.5 22.1
02:35 1013 29.91 842 24.86 9.7 49.4 34 -5.2 22.6
02:40 1013 29.91 842 24.86 9.5 49.1 35 -5 23
02:45 1013 29.91 842 24.86 9.4 49 36 -4.8 23.3
02:50 1012 29.88 842 24.86 9.4 49 36 -5 23
02:55 1012 29.88 842 24.86 9.5 49 35 -5.3 22.5
03:00 1012 29.88 842 24.86 9.7 49.4 35 -5.2 22.7
03:05 1012 29.88 842 24.86 9.8 49.7 34 -5.3 22.5
03:10 1012 29.88 841 24.83 9.9 49.9 34 -5.2 22.7
03:15 1012 29.88 841 24.83 9.9 49.8 35 -5 23.1
03:20 1012 29.88 841 24.83 9.8 49.7 34 -5.1 22.8
03:25 1012 29.88 841 24.83 9.8 49.6 35 -5 23
03:30 1012 29.88 841 24.83 9.9 49.7 34 -5.4 22.3
03:35 1012 29.88 841 24.83 9.9 49.8 34 -5.4 22.3
03:40 1012 29.88 841 24.83 10.1 50.1 33 -5.5 22
03:45 1012 29.88 841 24.83 10.4 50.7 32 -5.6 22
03:50 1012 29.88 841 24.83 10.4 50.7 32 -5.4 22.3
03:55 1012 29.88 841 24.83 10.5 50.8 32 -5.3 22.4
04:00 1012 29.88 841 24.83 10.4 50.6 33 -5.2 22.7
04:05 1012 29.88 841 24.83 10.5 50.9 33 -5.1 22.9
04:10 1011 29.85 841 24.83 11 51.8 32 -5 22.9
04:15 1011 29.85 841 24.83 11.3 52.4 32 -4.9 23.2
04:20 1011 29.85 840 24.81 11.5 52.7 31 -5 23.1
04:25 1011 29.85 840 24.81 11.4 52.6 32 -4.6 23.7
04:30 1011 29.85 841 24.83 11.1 51.9 32 -4.8 23.3
04:35 1011 29.85 841 24.83 10.9 51.6 33 -4.6 23.6
04:40 1011 29.85 840 24.81 10.7 51.3 33 -4.7 23.5
04:45 1011 29.85 840 24.81 10.9 51.6 33 -4.6 23.7
04:50 1011 29.85 840 24.81 10.6 51 34 -4.7 23.6
04:55 1011 29.85 840 24.81 10.6 51 34 -4.7 23.6
05:00 1011 29.85 840 24.81 10.7 51.2 34 -4.6 23.8
05:05 1011 29.85 840 24.81 10.7 51.3 34 -4.4 24.1
05:10 1011 29.85 840 24.81 11.1 51.9 33 -4.5 23.9
05:15 1011 29.85 840 24.81 11.2 52.1 34 -4.2 24.4
05:20 1011 29.85 840 24.81 11.3 52.3 33 -4.2 24.4
05:25 1011 29.85 840 24.81 11.3 52.3 34 -3.8 25.1
05:30 1011 29.85 840 24.81 11.6 52.9 33 -3.9 25
05:35 1011 29.85 840 24.81 11.8 53.2 34 -3.7 25.3
05:40 1011 29.85 840 24.81 11.8 53.2 34 -3.7 25.4
05:45 1011 29.85 840 24.81 12.2 53.9 33 -3.7 25.4
05:50 1011 29.85 840 24.81 13 55.4 32 -3.2 26.3
05:55 1011 29.85 840 24.81 13.3 56 33 -2.7 27.1
06:00 1011 29.85 840 24.81 13.2 55.8 37 -1.2 29.8
06:05 1011 29.85 840 24.81 13.2 55.8 34 -2.4 27.7
06:10 1011 29.85 840 24.81 13 55.5 34 -2.5 27.6
06:15 1011 29.85 840 24.81 13.2 55.7 35 -2.1 28.3
06:20 1011 29.85 840 24.81 13.1 55.6 36 -1.7 29
06:25 1011 29.85 840 24.81 13 55.5 36 -1.8 28.7
06:30 1010 29.83 840 24.81 13.1 55.5 37 -1.4 29.5
06:35 1010 29.83 840 24.81 13 55.3 37 -1.4 29.5
06:40 1010 29.83 840 24.81 13.1 55.6 37 -1.1 30.1
06:45 1010 29.83 840 24.81 13.3 55.9 37 -1 30.3
06:50 1010 29.83 840 24.81 13.4 56.1 37 -1 30.2
06:55 1010 29.83 840 24.81 13.3 55.9 37 -1.1 29.9
07:00 1010 29.83 840 24.81 13.5 56.2 37 -0.8 30.6
07:05 1010 29.83 839 24.78 13.4 56.1 38 -0.7 30.7
07:10 1010 29.83 839 24.78 13.4 56 38 -0.6 30.9
07:15 1010 29.83 839 24.78 13.4 56.2 37 -0.7 30.7
07:20 1010 29.83 839 24.78 13.4 56.2 37 -0.7 30.7
07:25 1010 29.83 839 24.78 13.5 56.3 38 -0.5 31
07:30 1010 29.83 839 24.78 13.6 56.5 37 -0.7 30.8
07:35 1010 29.83 839 24.78 13.7 56.6 37 -0.8 30.6
07:40 1010 29.83 839 24.78 13.8 56.9 36 -0.8 30.6
07:45 1010 29.83 839 24.78 13.9 57.1 36 -1 30.2
07:50 1010 29.83 839 24.78 14.1 57.3 36 -0.8 30.6
07:55 1010 29.83 839 24.78 14.3 57.7 35 -0.7 30.7
08:00 1010 29.83 839 24.78 14.4 57.8 35 -0.8 30.6
08:05 1010 29.83 839 24.78 14.4 58 34 -1 30.3
08:10 1010 29.83 839 24.78 14.6 58.2 34 -1 30.1
08:15 1010 29.83 839 24.78 14.7 58.4 36 -0.2 31.7
08:20 1010 29.83 839 24.78 14.8 58.7 33 -1 30.1
08:25 1009 29.8 839 24.78 14.8 58.7 33 -1 30.1
08:30 1009 29.8 839 24.78 14.8 58.6 35 -0.6 31
08:35 1009 29.8 838 24.75 14.6 58.3 35 -0.7 30.7
08:40 1009 29.8 838 24.75 14.6 58.2 34 -0.9 30.4
08:45 1009 29.8 838 24.75 14.7 58.4 34 -0.8 30.6
08:50 1009 29.8 838 24.75 14.8 58.7 34 -0.8 30.6
08:55 1009 29.8 838 24.75 14.9 58.8 34 -0.9 30.3
09:00 1009 29.8 838 24.75 15.1 59.2 32 -1.2 29.9
09:05 1009 29.8 838 24.75 15 59.1 33 -1.2 29.8
09:10 1009 29.8 838 24.75 15 58.9 33 -1.3 29.7
09:15 1009 29.8 838 24.75 15.1 59.1 33 -1.1 30
09:20 1008 29.77 838 24.75 15.4 59.7 31 -1.5 29.2
09:25 1008 29.77 837 24.72 16 60.7 32 -0.8 30.5
09:30 1008 29.77 837 24.72 16.1 61 32 -0.6 31
09:35 1008 29.77 837 24.72 16.5 61.7 30 -1.1 30
09:40 1008 29.77 837 24.72 16.6 61.9 28 -1.8 28.8
09:45 1008 29.77 837 24.72 17 62.6 29 -1 30.2
09:50 1008 29.77 837 24.72 17.2 63 30 -0.2 31.7
09:55 1008 29.77 837 24.72 17.2 63 31 -0 32
10:00 1008 29.77 837 24.72 17.6 63.6 28 -1 30.2
10:05 1008 29.77 837 24.72 17.8 64.1 28 -0.9 30.4
10:10 1007 29.74 837 24.72 18 64.3 29 -0.2 31.6
10:15 1007 29.74 836 24.69 17.2 63 29 -0.7 30.8
10:20 1007 29.74 836 24.69 17.2 62.9 30 -0.6 30.9
10:25 1007 29.74 836 24.69 17.1 62.7 29 -1.1 30
10:30 1007 29.74 836 24.69 17.1 62.8 29 -0.9 30.4
10:35 1007 29.74 836 24.69 17 62.6 30 -0.5 31.1
10:40 1007 29.74 836 24.69 16.7 62.1 32 -0.1 31.9
10:45 1007 29.74 836 24.69 16.6 61.9 32 -0.2 31.6
10:50 1007 29.74 836 24.69 16.5 61.6 32 -0 32
10:55 1007 29.74 836 24.69 16.5 61.8 32 -0.2 31.7
11:00 1007 29.74 836 24.69 16.8 62.2 30 -0.9 30.4
11:05 1006 29.71 836 24.69 17.6 63.6 29 -0.7 30.8
11:10 1006 29.71 836 24.69 17.4 63.2 29 -0.6 31
11:15 1006 29.71 836 24.69 17.8 64.1 30 -0.1 31.8
11:20 1006 29.71 835 24.66 18.5 65.2 27 -0.7 30.7
11:25 1006 29.71 835 24.66 18.5 65.2 28 -0.2 31.6
11:30 1006 29.71 835 24.66 18.8 65.8 27 -0.7 30.7
11:35 1006 29.71 835 24.66 19 66.1 29 0.6 33.1
11:40 1006 29.71 835 24.66 18.6 65.4 29 0.4 32.7
11:45 1006 29.71 835 24.66 17.6 63.7 29 -0.3 31.5
11:50 1006 29.71 835 24.66 18.3 65 28 -0.4 31.3
11:55 1006 29.71 835 24.66 18.9 66.1 26 -0.8 30.6
12:00 1006 29.71 835 24.66 19.5 67.1 26 -0.4 31.2
12:05 1006 29.71 835 24.66 19.6 67.2 25 -1 30.2
12:10 1005 29.68 835 24.66 19.3 66.7 25 -0.9 30.4
12:15 1005 29.68 835 24.66 18.8 65.9 26 -0.7 30.7
12:20 1005 29.68 834 24.63 19.4 67 25 -1.2 29.9
12:25 1005 29.68 834 24.63 20 68 26 0.2 32.4
12:30 1005 29.68 834 24.63 19.2 66.6 27 0 32
12:35 1005 29.68 834 24.63 18.5 65.3 27 -0.7 30.7
12:40 1005 29.68 834 24.63 18.3 64.9 27 -1 30.2
12:45 1005 29.68 834 24.63 18.1 64.5 27 -1.3 29.7
12:50 1005 29.68 834 24.63 19.1 66.5 26 -0.9 30.4
12:55 1004 29.65 834 24.63 19.2 66.6 27 -0.3 31.4
13:00 1004 29.65 833 24.6 18.8 65.8 29 0.3 32.5
13:05 1004 29.65 833 24.6 18.5 65.2 29 0.1 32.2
13:10 1004 29.65 833 24.6 18.7 65.7 29 0.3 32.6
13:15 1004 29.65 833 24.6 18.4 65.1 29 0.1 32.2
13:20 1003 29.62 833 24.6 18.3 65 29 0 32.1
13:25 1003 29.62 832 24.57 18.3 65 29 -0.1 31.8
13:30 1003 29.62 832 24.57 18.3 65 28 -0.4 31.3
13:35 1003 29.62 832 24.57 18.3 65 29 -0 31.9
13:40 1003 29.62 832 24.57 18.2 64.8 29 0.1 32.1
13:45 1003 29.62 832 24.57 18.1 64.6 30 0.3 32.5
13:50 1002 29.59 832 24.57 17.9 64.2 30 0.3 32.6
13:55 1002 29.59 832 24.57 17.7 63.8 31 0.5 33
14:00 1002 29.59 832 24.57 17.5 63.4 32 0.6 33
14:05 1003 29.62 832 24.57 17.4 63.4 32 0.7 33.2
14:10 1003 29.62 832 24.57 17.3 63.2 32 0.8 33.4
14:15 1002 29.59 832 24.57 17.3 63.1 32 0.7 33.2
14:20 1003 29.62 832 24.57 17.3 63.1 34 1.2 34.2
14:25 1003 29.62 832 24.57 15.5 59.9 50 5.2 41.3
14:30 1004 29.65 833 24.6 13.6 56.5 53 4.4 39.9
14:35 1004 29.65 834 24.63 13.3 55.9 59 5.5 41.9
14:40 1004 29.65 833 24.6 12.6 54.7 63 5.8 42.5
14:45 1004 29.65 833 24.6 12.4 54.4 63 5.6 42.1
14:50 1004 29.65 833 24.6 12.4 54.3 61 5.1 41.2
14:55 1004 29.65 833 24.6 12.6 54.7 58 4.7 40.5
15:00 1004 29.65 833 24.6 13 55.3 54 4 39.2
15:05 1003 29.62 833 24.6 13.4 56 48 2.7 36.8
15:10 1003 29.62 832 24.57 13.7 56.7 47 2.6 36.7
15:15 1003 29.62 832 24.57 13.7 56.7 48 3.1 37.6
15:20 1003 29.62 832 24.57 13.5 56.4 49 3.1 37.6
15:25 1003 29.62 832 24.57 13.7 56.7 48 3 37.4
15:30 1003 29.62 832 24.57 14 57.3 45 2.3 36.2
15:35 1003 29.62 832 24.57 14.3 57.7 44 2.4 36.3
15:40 1002 29.59 831 24.54 14.4 57.9 44 2.4 36.4
15:45 1002 29.59 831 24.54 14.6 58.3 42 2 35.5
15:50 1002 29.59 831 24.54 15 58.9 41 1.9 35.3
15:55 1002 29.59 831 24.54 15.4 59.8 39 1.6 34.9
16:00 1002 29.59 831 24.54 15.6 60.1 36 0.7 33.2
16:05 1002 29.59 831 24.54 15.9 60.7 35 0.8 33.4
16:10 1002 29.59 831 24.54 16.2 61.1 36 1.2 34.2
16:15 1002 29.59 832 24.57 15.9 60.6 38 1.8 35.3
16:20 1002 29.59 831 24.54 15.4 59.7 41 2.3 36.1
16:25 1002 29.59 831 24.54 15.2 59.4 39 1.5 34.7
16:30 1002 29.59 831 24.54 15.2 59.4 40 1.7 35.1
16:35 1002 29.59 831 24.54 15.1 59.2 40 1.7 35.1
16:40 1002 29.59 832 24.57 15.1 59.1 41 2.2 35.9
16:45 1003 29.62 832 24.57 14.9 58.9 43 2.5 36.6
16:50 1003 29.62 832 24.57 14.6 58.3 45 2.8 37.1
16:55 1003 29.62 832 24.57 14.3 57.7 46 3 37.5
17:00 1003 29.62 832 24.57 12.9 55.1 64 6.3 43.4
17:05 1003 29.62 832 24.57 11.3 52.3 70 6 42.8
17:10 1003 29.62 832 24.57 10.7 51.3 71 5.7 42.2
17:15 1003 29.62 832 24.57 10.5 50.9 72 5.8 42.4
17:20 1003 29.62 832 24.57 10.3 50.5 75 6 42.8
17:25 1003 29.62 833 24.6 10.1 50.2 76 6.1 42.9
17:30 1003 29.62 833 24.6 10.2 50.3 74 5.8 42.5
17:35 1003 29.62 833 24.6 10.1 50.3 75 5.9 42.6
17:40 1003 29.62 833 24.6 9.8 49.6 78 6.1 42.9
17:45 1004 29.65 833 24.6 9 48.1 81 5.9 42.6
17:50 1003 29.62 833 24.6 8.4 47 82 5.4 41.7
17:55 1003 29.62 833 24.6 8.3 46.9 81 5.3 41.5
18:00 1004 29.65 833 24.6 8.3 47 80 5.1 41.2
18:05 1004 29.65 833 24.6 8.4 47 81 5.3 41.6
18:10 1004 29.65 833 24.6 8.2 46.7 84 5.6 42.2
18:15 1004 29.65 833 24.6 8.1 46.6 85 5.7 42.3
18:20 1004 29.65 833 24.6 8.1 46.6 86 5.8 42.5
18:25 1003 29.62 833 24.6 8 46.5 86 5.8 42.4
18:30 1003 29.62 832 24.57 7.9 46.2 85 5.6 42.1
18:35 1003 29.62 832 24.57 7.9 46.2 85 5.5 42
18:40 1003 29.62 832 24.57 7.9 46.2 85 5.5 41.9
18:45 1003 29.62 832 24.57 7.8 46.1 83 5.1 41.2
18:50 1003 29.62 832 24.57 7.7 45.8 84 5.1 41.1
18:55 1003 29.62 832 24.57 7.5 45.5 85 5.2 41.4
19:00 1003 29.62 832 24.57 7.3 45.2 85 4.9 40.8
19:05 1003 29.62 833 24.6 7.1 44.9 85 4.9 40.8
19:10 1003 29.62 833 24.6 7 44.7 87 5.1 41.1
19:15 1003 29.62 833 24.6 6.9 44.3 89 5.1 41.2
19:20 1004 29.65 833 24.6 6.4 43.6 89 4.8 40.7
19:25 1004 29.65 833 24.6 6 42.9 89 4.4 39.9
19:30 1004 29.65 834 24.63 5.6 42 89 3.9 39
19:35 1004 29.65 834 24.63 5.1 41.3 90 3.6 38.5
19:40 1005 29.68 834 24.63 4.9 40.8 91 3.5 38.3
19:45 1005 29.68 834 24.63 4.7 40.5 91 3.4 38.1
19:50 1005 29.68 834 24.63 4.6 40.2 91 3.2 37.8
19:55 1005 29.68 835 24.66 4.4 40 90 3 37.4
20:00 1006 29.71 835 24.66 4.3 39.7 91 2.9 37.2
20:05 1006 29.71 835 24.66 4.1 39.5 90 2.6 36.8
20:10 1006 29.71 835 24.66 4 39.3 90 2.6 36.6
20:15 1006 29.71 835 24.66 3.9 39 91 2.5 36.6
20:20 1006 29.71 835 24.66 3.9 38.9 91 2.5 36.5
20:25 1006 29.71 835 24.66 3.8 38.8 90 2.3 36.2
20:30 1006 29.71 835 24.66 3.8 38.8 91 2.4 36.3
20:35 1006 29.71 835 24.66 3.7 38.7 91 2.4 36.3
20:40 1006 29.71 835 24.66 3.7 38.6 89 2.1 35.8
20:45 1006 29.71 835 24.66 3.6 38.4 90 2 35.6
20:50 1006 29.71 835 24.66 3.4 38.1 89 1.8 35.2
20:55 1006 29.71 835 24.66 3.3 37.9 88 1.4 34.6
21:00 1006 29.71 835 24.66 3.3 37.9 86 1.2 34.2
21:05 1006 29.71 835 24.66 3.1 37.7 88 1.3 34.3
21:10 1006 29.71 835 24.66 3 37.4 87 1.1 33.9
21:15 1006 29.71 835 24.66 2.4 36.4 90 0.9 33.6
21:20 1006 29.71 835 24.66 2.4 36.3 90 1 33.7
21:25 1006 29.71 835 24.66 2.4 36.3 91 1.1 33.9
21:30 1006 29.71 835 24.66 2.4 36.4 89 0.9 33.6
21:35 1006 29.71 835 24.66 2.5 36.4 90 1 33.9
21:40 1006 29.71 835 24.66 2.6 36.6 90 1.1 33.9
21:45 1006 29.71 835 24.66 2.6 36.7 91 1.3 34.3
21:50 1006 29.71 835 24.66 2.6 36.6 91 1.2 34.1
21:55 1006 29.71 835 24.66 2.6 36.7 91 1.3 34.3
22:00 1006 29.71 835 24.66 2.7 36.8 90 1.1 34.1
22:05 1006 29.71 835 24.66 2.7 36.8 89 1.1 34
22:10 1006 29.71 835 24.66 2.7 36.8 89 1.1 34
22:15 1006 29.71 835 24.66 2.7 36.9 89 1.1 34
22:20 1006 29.71 835 24.66 2.8 37 89 1.2 34.1
22:25 1006 29.71 835 24.66 2.8 37.1 89 1.2 34.1
22:30 1006 29.71 835 24.66 2.9 37.2 89 1.2 34.2
22:35 1006 29.71 835 24.66 3 37.4 89 1.3 34.4
22:40 1006 29.71 835 24.66 3.1 37.6 89 1.5 34.7
22:45 1006 29.71 835 24.66 3.2 37.8 89 1.5 34.8
22:50 1006 29.71 835 24.66 3.3 37.9 89 1.6 34.9
22:55 1006 29.71 835 24.66 3.3 37.9 89 1.6 34.8
23:00 1006 29.71 835 24.66 3.3 37.9 88 1.6 34.8
23:05 1006 29.71 835 24.66 3.3 37.9 89 1.6 35
23:10 1006 29.71 835 24.66 3.3 38 88 1.5 34.7
23:15 1006 29.71 835 24.66 3.3 38 88 1.6 34.8
23:20 1006 29.71 835 24.66 3.4 38.1 89 1.7 35.1
23:25 1006 29.71 835 24.66 3.4 38.1 89 1.7 35
23:30 1006 29.71 835 24.66 3.4 38.2 88 1.6 34.8
23:35 1006 29.71 835 24.66 3.3 38 88 1.5 34.7
23:40 1006 29.71 835 24.66 3.3 37.9 88 1.5 34.7
23:45 1006 29.71 835 24.66 3.2 37.8 88 1.5 34.6
23:50 1006 29.71 835 24.66 3.2 37.8 89 1.5 34.8
23:55 1006 29.71 836 24.69 3.2 37.8 89 1.5 34.7
24:00 1006 29.71 836 24.69 3.2 37.7 89 1.5 34.8